Time;durP1;ratioP1;P1;durP2;ratioP2;P2;SDS_P1;SDS_P2;PMS_P1;PMS_P2;Temp;Humidity;BMP_temperature;BMP_pressure;BME280_temperature;BME280_humidity;BME280_pressure;Samples;Min_cycle;Max_cycle;Signal;HPM_P1;HPM_P2
2022/01/16 00:07:13;;;;;;;77.93;26.02;;;3.30;99.90;;;;;;5218741;22;1492738;-86
2022/01/16 00:09:16;;;;;;;117.32;26.75;;;3.20;99.90;;;;;;5212393;22;20015;-86
2022/01/16 00:11:18;;;;;;;84.60;27.48;;;3.20;99.90;;;;;;5225374;22;20503;-83
2022/01/16 00:13:20;;;;;;;87.45;26.10;;;3.20;99.90;;;;;;5224871;22;20030;-85
2022/01/16 00:15:22;;;;;;;69.72;25.75;;;3.20;99.90;;;;;;5224811;22;20077;-85
2022/01/16 00:17:27;;;;;;;70.15;25.70;;;3.20;99.90;;;;;;5221546;22;20019;-86
2022/01/16 00:19:29;;;;;;;71.13;25.38;;;3.20;99.90;;;;;;5219784;22;20019;-85
2022/01/16 00:21:35;;;;;;;69.68;25.20;;;3.20;99.90;;;;;;5219979;22;20015;-85
2022/01/16 00:23:37;;;;;;;77.70;26.38;;;3.20;99.90;;;;;;5219874;22;20031;-88
2022/01/16 00:25:41;;;;;;;80.40;27.52;;;3.20;99.90;;;;;;5219995;22;20031;-86
2022/01/16 00:27:43;;;;;;;84.13;27.95;;;3.20;99.90;;;;;;5219642;22;20015;-84
2022/01/16 00:29:45;;;;;;;75.57;26.70;;;3.20;99.90;;;;;;5222076;22;20019;-84
2022/01/16 00:31:47;;;;;;;82.82;27.15;;;3.20;99.90;;;;;;5221856;22;20091;-86
2022/01/16 00:33:50;;;;;;;89.78;28.13;;;3.20;99.90;;;;;;5220887;22;20073;-83
2022/01/16 00:35:52;;;;;;;67.97;25.90;;;3.20;99.90;;;;;;5221302;22;20432;-85
2022/01/16 00:37:54;;;;;;;67.93;26.92;;;3.10;99.90;;;;;;5221344;22;20074;-82
2022/01/16 00:39:56;;;;;;;74.80;27.00;;;3.10;99.90;;;;;;5222070;22;20019;-87
2022/01/16 00:41:58;;;;;;;69.68;25.42;;;3.00;99.90;;;;;;5222250;22;20015;-85
2022/01/16 00:44:00;;;;;;;71.63;24.63;;;3.00;99.90;;;;;;5223127;22;20022;-88
2022/01/16 00:46:03;;;;;;;54.40;23.00;;;2.90;99.90;;;;;;5223556;22;20086;-87
2022/01/16 00:48:06;;;;;;;61.33;23.95;;;2.80;99.90;;;;;;5224384;22;20026;-84
2022/01/16 00:50:08;;;;;;;68.13;24.55;;;2.80;99.90;;;;;;5223381;22;20019;-84
2022/01/16 00:52:10;;;;;;;62.42;24.35;;;2.80;99.90;;;;;;5223442;22;20903;-85
2022/01/16 00:54:12;;;;;;;55.60;24.10;;;2.80;99.90;;;;;;5224774;22;20477;-87
2022/01/16 00:56:14;;;;;;;62.30;24.52;;;2.80;99.90;;;;;;5225181;22;20696;-85
2022/01/16 00:58:16;;;;;;;54.80;23.60;;;2.80;99.90;;;;;;5226553;22;20026;-87
2022/01/16 01:00:19;;;;;;;64.50;24.77;;;2.80;99.90;;;;;;5223977;22;20019;-85
2022/01/16 01:02:23;;;;;;;73.88;22.33;;;2.80;99.90;;;;;;5222480;22;20019;-87
2022/01/16 01:04:24;;;;;;;56.70;24.17;;;2.70;99.90;;;;;;5224896;22;20023;-84
2022/01/16 01:06:26;;;;;;;73.13;23.45;;;2.70;99.90;;;;;;5222935;22;20023;-87
2022/01/16 01:08:30;;;;;;;59.42;23.90;;;2.70;99.90;;;;;;5200002;22;20015;-86
2022/01/16 01:10:35;;;;;;;59.10;24.95;;;2.70;99.90;;;;;;5199938;22;20022;-85
2022/01/16 01:12:52;;;;;;;56.35;23.73;;;2.70;99.90;;;;;;5200242;22;20015;-85
2022/01/16 01:17:25;;;;;;;64.18;23.67;;;2.70;99.90;;;;;;5200824;22;20051;-90
2022/01/16 01:19:32;;;;;;;60.65;23.50;;;2.70;99.90;;;;;;5200623;22;20489;-87
2022/01/16 01:21:34;;;;;;;49.00;23.40;;;2.70;99.90;;;;;;5200918;22;20015;-87
2022/01/16 01:23:36;;;;;;;64.75;24.63;;;2.70;99.90;;;;;;5199417;22;20392;-87
2022/01/16 01:25:38;;;;;;;61.88;25.40;;;2.80;99.90;;;;;;5197878;22;20503;-84
2022/01/16 01:27:43;;;;;;;71.60;24.25;;;2.80;99.90;;;;;;5197878;22;20103;-87
2022/01/16 01:29:53;;;;;;;62.95;23.45;;;2.70;99.90;;;;;;5200250;22;20020;-87
2022/01/16 01:31:57;;;;;;;60.38;23.30;;;2.70;99.90;;;;;;5201664;22;20035;-88
2022/01/16 01:33:59;;;;;;;46.33;23.40;;;2.80;99.90;;;;;;5201158;22;20538;-88
2022/01/16 01:36:01;;;;;;;65.95;23.33;;;2.80;99.90;;;;;;5200885;22;20030;-84
2022/01/16 01:38:03;;;;;;;57.35;23.92;;;2.80;99.90;;;;;;5201908;22;20030;-90
2022/01/16 01:40:11;;;;;;;60.15;23.90;;;2.80;99.90;;;;;;5201154;22;20019;-87
2022/01/16 01:42:14;;;;;;;58.13;23.10;;;2.80;99.90;;;;;;5200267;22;20027;-88
2022/01/16 01:51:44;;;;;;;69.88;22.50;;;3.00;99.90;;;;;;5122644;23;20048;-86
2022/01/16 01:53:47;;;;;;;66.25;23.42;;;3.00;99.90;;;;;;5124240;23;20029;-88
2022/01/16 01:55:49;;;;;;;63.03;22.35;;;3.00;99.90;;;;;;5124629;22;20021;-87
2022/01/16 01:57:51;;;;;;;69.95;21.55;;;3.00;99.90;;;;;;5202326;22;20019;-88
2022/01/16 01:59:53;;;;;;;73.10;22.20;;;3.00;99.90;;;;;;5202079;22;20681;-88
2022/01/16 02:01:55;;;;;;;53.65;21.02;;;3.10;99.90;;;;;;5201437;22;20024;-89
2022/01/16 02:03:58;;;;;;;67.95;23.33;;;3.10;99.90;;;;;;5201476;22;20020;-85
2022/01/16 02:06:00;;;;;;;57.30;21.90;;;3.10;99.90;;;;;;5202055;22;20088;-85
2022/01/16 02:08:05;;;;;;;77.80;22.08;;;3.10;99.90;;;;;;5253346;22;20027;-87
2022/01/16 02:10:08;;;;;;;65.63;22.00;;;3.10;99.90;;;;;;5227920;22;20026;-86
2022/01/16 02:12:10;;;;;;;69.93;22.45;;;3.10;99.90;;;;;;5228728;22;20045;-89
2022/01/16 02:14:30;;;;;;;55.20;20.70;;;3.20;99.90;;;;;;5228117;22;20019;-89
2022/01/16 02:28:35;;;;;;;58.13;20.73;;;3.20;99.90;;;;;;5258195;22;20015;-91
2022/01/16 02:32:50;;;;;;;59.47;22.95;;;3.20;99.90;;;;;;5256612;22;20476;-88
2022/01/16 02:34:52;;;;;;;63.63;21.95;;;3.20;99.90;;;;;;5228166;22;20015;-90
2022/01/16 02:36:58;;;;;;;70.05;22.15;;;3.30;99.90;;;;;;5255581;22;20029;-91
2022/01/16 02:39:11;;;;;;;58.45;21.08;;;3.30;99.90;;;;;;5228454;22;20020;-88
2022/01/16 02:41:13;;;;;;;57.88;21.67;;;3.30;99.90;;;;;;5227879;22;20041;-88
2022/01/16 02:43:18;;;;;;;67.05;21.80;;;3.40;99.90;;;;;;5227684;22;20026;-89
2022/01/16 02:45:30;;;;;;;54.17;20.67;;;3.40;99.90;;;;;;5227727;22;20020;-89
2022/01/16 02:47:32;;;;;;;62.88;21.95;;;3.40;99.90;;;;;;5227008;22;20015;-87
2022/01/16 02:49:54;;;;;;;59.83;21.30;;;3.40;99.90;;;;;;5228612;22;20043;-89
2022/01/16 02:51:59;;;;;;;54.63;20.63;;;3.40;99.90;;;;;;5225129;22;20028;-90
2022/01/16 02:54:01;;;;;;;54.38;21.20;;;3.40;99.90;;;;;;5224006;22;20026;-87
2022/01/16 02:56:03;;;;;;;54.13;21.08;;;3.40;99.90;;;;;;5226180;22;20030;-89
2022/01/16 02:58:05;;;;;;;58.67;22.55;;;3.40;99.90;;;;;;5224406;22;20027;-90
2022/01/16 03:00:08;;;;;;;57.13;21.58;;;3.40;99.90;;;;;;5224523;22;20020;-89
2022/01/16 03:02:10;;;;;;;58.50;22.70;;;3.40;99.90;;;;;;5222961;22;20027;-88
2022/01/16 03:04:12;;;;;;;63.25;22.05;;;3.40;99.90;;;;;;5224332;22;20022;-90
2022/01/16 03:06:14;;;;;;;66.35;21.95;;;3.40;99.90;;;;;;5224416;22;20019;-89
2022/01/16 03:08:16;;;;;;;60.58;21.50;;;3.40;99.90;;;;;;5225148;22;20022;-89
2022/01/16 03:10:40;;;;;;;46.95;20.38;;;3.40;99.90;;;;;;5224463;22;20019;-90
2022/01/16 03:12:42;;;;;;;64.78;20.95;;;3.40;99.90;;;;;;5249885;22;20647;-90
2022/01/16 03:14:44;;;;;;;64.10;22.27;;;3.40;99.90;;;;;;5251022;22;20018;-89
2022/01/16 03:16:51;;;;;;;60.13;21.08;;;3.50;99.90;;;;;;5251312;22;20025;-91
2022/01/16 03:22:02;;;;;;;54.40;20.33;;;3.50;99.90;;;;;;5251184;22;20027;-88
2022/01/16 03:23:36;;;;;;;61.28;20.40;;;3.60;99.90;;;;;;5233702;22;20412;-90
2022/01/16 03:25:38;;;;;;;55.47;20.45;;;3.60;99.90;;;;;;5222279;22;20019;-87
2022/01/16 03:27:40;;;;;;;57.22;20.00;;;3.60;99.90;;;;;;5224197;22;20477;-92
2022/01/16 03:29:52;;;;;;;65.90;20.40;;;3.70;99.90;;;;;;5224628;22;20019;-91
2022/01/16 03:31:55;;;;;;;63.10;20.23;;;3.80;99.90;;;;;;5225373;22;20019;-90
2022/01/16 03:33:57;;;;;;;64.55;19.90;;;3.80;99.90;;;;;;5252348;22;20021;-88
2022/01/16 03:36:00;;;;;;;64.20;20.45;;;3.80;99.90;;;;;;5225587;22;20369;-88
2022/01/16 03:38:03;;;;;;;57.08;19.13;;;3.90;99.90;;;;;;5224564;22;20085;-91
2022/01/16 03:40:07;;;;;;;58.67;19.30;;;3.90;99.90;;;;;;5224933;22;20042;-90
2022/01/16 03:42:09;;;;;;;58.25;20.38;;;3.90;99.90;;;;;;5225434;22;20015;-93
2022/01/16 03:44:12;;;;;;;51.70;19.45;;;4.00;99.90;;;;;;5253127;22;20473;-93
2022/01/16 03:46:14;;;;;;;57.03;18.52;;;4.00;99.90;;;;;;5250935;22;20019;-91
2022/01/16 03:48:17;;;;;;;55.47;19.05;;;4.10;99.90;;;;;;5222301;22;20117;-90
2022/01/16 03:50:19;;;;;;;50.75;17.80;;;4.10;99.90;;;;;;5249863;22;20018;-90
2022/01/16 03:52:21;;;;;;;51.47;17.80;;;4.10;99.90;;;;;;5253668;22;20076;-91
2022/01/16 03:54:27;;;;;;;52.53;18.13;;;4.20;99.90;;;;;;5228369;22;20011;-92
2022/01/16 03:56:30;;;;;;;52.08;16.52;;;4.30;99.90;;;;;;5227935;22;20049;-89
2022/01/16 03:58:34;;;;;;;54.40;18.75;;;4.30;99.90;;;;;;5256023;22;20072;-92
2022/01/16 04:00:36;;;;;;;50.88;17.88;;;4.40;99.90;;;;;;5228991;22;20081;-92
2022/01/16 04:02:38;;;;;;;44.72;16.60;;;4.40;99.90;;;;;;5225177;22;20642;-89
2022/01/16 04:04:41;;;;;;;45.70;16.15;;;4.40;99.90;;;;;;5223485;22;20528;-93
2022/01/16 04:06:43;;;;;;;48.38;17.45;;;4.40;99.90;;;;;;5224086;22;20027;-91
2022/01/16 04:08:50;;;;;;;45.38;16.42;;;4.50;99.90;;;;;;5224653;22;20015;-91
2022/01/16 04:10:55;;;;;;;44.50;16.27;;;4.50;99.90;;;;;;5224232;22;20038;-93
2022/01/16 04:12:57;;;;;;;47.55;17.05;;;4.50;99.90;;;;;;5225030;22;20381;-90
2022/01/16 04:17:02;;;;;;;41.03;16.20;;;4.60;99.90;;;;;;5251379;22;20024;-93
2022/01/16 04:19:04;;;;;;;40.63;14.70;;;4.60;99.90;;;;;;5223861;22;20023;-91
2022/01/16 04:21:07;;;;;;;42.00;15.30;;;4.60;99.90;;;;;;5224178;22;20020;-91
2022/01/16 04:23:12;;;;;;;41.88;16.05;;;4.60;99.90;;;;;;5223426;22;20019;-90
2022/01/16 04:25:14;;;;;;;;;;;4.70;99.90;;;;;;5224081;22;20046;-92
2022/01/16 04:27:17;;;;;;;36.47;14.35;;;4.70;99.90;;;;;;5224854;22;19919;-89
2022/01/16 04:29:19;;;;;;;38.33;15.10;;;4.70;99.90;;;;;;5223848;22;20034;-90
2022/01/16 04:31:22;;;;;;;44.70;14.98;;;4.70;99.90;;;;;;5224264;22;20019;-90
2022/01/16 04:33:24;;;;;;;40.90;15.48;;;4.70;99.90;;;;;;5224044;22;20022;-90
2022/01/16 04:35:28;;;;;;;37.65;14.43;;;4.70;99.90;;;;;;5224395;22;20019;-91
2022/01/16 04:37:30;;;;;;;41.42;14.88;;;4.70;99.90;;;;;;5224075;22;20534;-92
2022/01/16 04:39:35;;;;;;;44.40;15.23;;;4.80;99.90;;;;;;5225064;22;20019;-91
2022/01/16 04:44:00;;;;;;;37.40;15.02;;;4.80;99.90;;;;;;5252352;22;20015;-89
2022/01/16 04:46:02;;;;;;;39.28;14.77;;;4.80;99.90;;;;;;5225901;22;20090;-89
2022/01/16 04:48:05;;;;;;;38.60;14.88;;;4.80;99.90;;;;;;5225856;22;20019;-89
2022/01/16 04:50:12;;;;;;;35.47;13.95;;;4.70;99.90;;;;;;5226469;22;20026;-94
2022/01/16 04:52:14;;;;;;;38.40;14.15;;;4.80;99.90;;;;;;5226513;22;20015;-94
2022/01/16 04:54:18;;;;;;;41.40;14.82;;;4.80;99.90;;;;;;5226891;22;20023;-88
2022/01/16 04:56:20;;;;;;;34.90;14.00;;;4.80;99.90;;;;;;5227430;22;20025;-91
2022/01/16 04:58:23;;;;;;;40.38;14.20;;;4.80;99.90;;;;;;5230303;22;20011;-89
2022/01/16 05:00:27;;;;;;;39.20;14.20;;;4.80;99.90;;;;;;5227965;22;20019;-91
2022/01/16 05:02:29;;;;;;;37.83;13.77;;;4.80;99.90;;;;;;5226788;22;20016;-92
2022/01/16 05:04:31;;;;;;;40.25;14.75;;;4.80;99.90;;;;;;5229208;22;20015;-90
2022/01/16 05:06:37;;;;;;;36.70;14.00;;;4.90;99.90;;;;;;5256818;22;20045;-90
2022/01/16 05:08:39;;;;;;;33.92;13.48;;;4.90;99.90;;;;;;5229591;22;20038;-90
2022/01/16 05:10:41;;;;;;;35.83;13.40;;;4.90;99.90;;;;;;5230846;22;20058;-91
2022/01/16 05:12:46;;;;;;;35.65;13.27;;;4.90;99.90;;;;;;5230452;22;20465;-91
2022/01/16 05:17:10;;;;;;;32.38;13.35;;;4.90;99.90;;;;;;5256568;22;20026;-92
2022/01/16 05:19:15;;;;;;;35.38;14.07;;;4.80;99.90;;;;;;5232678;22;20066;-89
2022/01/16 05:21:17;;;;;;;31.98;13.70;;;4.90;99.90;;;;;;5232750;22;20019;-93
2022/01/16 05:23:19;;;;;;;37.70;14.00;;;4.90;99.90;;;;;;5233746;22;19999;-91
2022/01/16 05:25:21;;;;;;;35.50;14.95;;;4.90;99.90;;;;;;5260485;22;19999;-90
2022/01/16 05:27:24;;;;;;;36.58;14.10;;;4.90;99.90;;;;;;5232485;22;20066;-90
2022/01/16 05:29:26;;;;;;;32.83;13.05;;;4.90;99.90;;;;;;5232628;22;20015;-92
2022/01/16 05:31:28;;;;;;;32.75;13.45;;;4.90;99.90;;;;;;5234144;22;20007;-90
2022/01/16 05:33:31;;;;;;;31.15;13.60;;;4.90;99.90;;;;;;5234839;22;20015;-90
2022/01/16 05:35:33;;;;;;;37.00;13.77;;;4.90;99.90;;;;;;5233777;22;20027;-90
2022/01/16 05:37:35;;;;;;;32.15;13.52;;;4.90;99.90;;;;;;5231467;22;20019;-90
2022/01/16 05:39:40;;;;;;;30.55;13.43;;;4.90;99.90;;;;;;5261653;22;20045;-93
2022/01/16 05:41:45;;;;;;;;;;;4.90;99.90;;;;;;5234175;22;20019;-94
2022/01/16 05:43:48;;;;;;;31.02;13.98;;;4.90;99.90;;;;;;5236841;22;19913;-97
2022/01/16 05:45:50;;;;;;;31.25;12.82;;;4.90;99.90;;;;;;5237167;22;20019;-91
2022/01/16 05:47:52;;;;;;;34.20;13.95;;;4.90;99.90;;;;;;5237728;22;20029;-90
2022/01/16 05:49:58;;;;;;;36.17;13.88;;;4.90;99.90;;;;;;5233920;22;20038;-90
2022/01/16 05:52:17;;;;;;;36.13;14.15;;;4.90;99.90;;;;;;5239675;22;20019;-90
2022/01/16 05:54:19;;;;;;;34.25;13.70;;;4.90;99.90;;;;;;5232882;22;20015;-90
2022/01/16 05:56:23;;;;;;;36.85;14.45;;;4.90;99.90;;;;;;5231917;22;20022;-90
2022/01/16 05:58:25;;;;;;;35.72;14.38;;;4.80;99.90;;;;;;5231535;22;20037;-89
2022/01/16 06:00:28;;;;;;;33.42;14.48;;;4.80;99.90;;;;;;5232374;22;20026;-90
2022/01/16 06:02:30;;;;;;;41.95;14.90;;;4.80;99.90;;;;;;5228540;22;20019;-89
2022/01/16 06:04:32;;;;;;;41.28;15.27;;;4.70;99.90;;;;;;5255746;22;20022;-91
2022/01/16 06:06:34;;;;;;;30.35;13.55;;;4.70;99.90;;;;;;5228153;22;20019;-91
2022/01/16 06:08:38;;;;;;;35.72;14.55;;;4.60;99.90;;;;;;5225671;22;20023;-94
2022/01/16 06:10:41;;;;;;;37.65;15.05;;;4.60;99.90;;;;;;5231165;22;20071;-98
2022/01/16 06:12:43;;;;;;;32.13;13.75;;;4.60;99.90;;;;;;5233590;22;20023;-89
2022/01/16 06:14:46;;;;;;;33.22;13.77;;;4.50;99.90;;;;;;5225662;22;20045;-90
2022/01/16 06:16:49;;;;;;;38.78;14.63;;;4.50;99.90;;;;;;5223998;22;20023;-87
2022/01/16 06:18:53;;;;;;;33.80;14.50;;;4.50;99.90;;;;;;5224056;22;20053;-90
2022/01/16 06:21:07;;;;;;;41.85;15.30;;;4.50;99.90;;;;;;5224424;22;20067;-94
2022/01/16 06:23:09;;;;;;;32.25;13.45;;;4.50;99.90;;;;;;5224644;22;20019;-91
2022/01/16 06:25:13;;;;;;;32.35;14.30;;;4.50;99.90;;;;;;5225252;22;20015;-92
2022/01/16 06:27:16;;;;;;;37.25;14.52;;;4.50;99.90;;;;;;5226230;22;20011;-93
2022/01/16 06:29:19;;;;;;;30.73;13.20;;;4.50;99.90;;;;;;5226321;22;20019;-91
2022/01/16 06:31:21;;;;;;;28.02;12.80;;;4.50;99.90;;;;;;5226332;22;20072;-90
2022/01/16 06:33:24;;;;;;;42.05;14.18;;;4.50;99.90;;;;;;5252197;22;20022;-93
2022/01/16 06:35:26;;;;;;;32.30;13.32;;;4.50;99.90;;;;;;5224714;22;20072;-96
2022/01/16 06:37:28;;;;;;;40.30;14.88;;;4.50;99.90;;;;;;5226213;22;20023;-89
2022/01/16 06:39:31;;;;;;;37.35;14.63;;;4.50;99.90;;;;;;5222959;22;20025;-93
2022/01/16 06:41:34;;;;;;;39.50;13.77;;;4.50;99.90;;;;;;5221965;22;20030;-92
2022/01/16 06:43:36;;;;;;;33.15;13.98;;;4.50;99.90;;;;;;5222197;22;20064;-91
2022/01/16 06:45:38;;;;;;;33.88;14.10;;;4.60;99.90;;;;;;5221708;22;20537;-90
2022/01/16 06:47:41;;;;;;;36.63;14.77;;;4.50;99.90;;;;;;5221806;22;20086;-89
2022/01/16 06:49:43;;;;;;;32.63;14.35;;;4.50;99.90;;;;;;5222138;22;20068;-91
2022/01/16 06:51:48;;;;;;;32.42;13.68;;;4.50;99.90;;;;;;5223770;22;20099;-96
2022/01/16 06:53:53;;;;;;;35.58;13.15;;;4.50;99.90;;;;;;5256870;22;20011;-97
2022/01/16 06:55:55;;;;;;;35.30;13.23;;;4.60;99.90;;;;;;5224249;22;20019;-92
2022/01/16 06:57:59;;;;;;;31.85;13.57;;;4.50;99.90;;;;;;5221450;22;20018;-91
2022/01/16 07:00:07;;;;;;;39.80;14.75;;;4.60;99.90;;;;;;5222133;22;20015;-89
2022/01/16 07:02:09;;;;;;;34.45;13.45;;;4.50;99.90;;;;;;5221781;22;20070;-90
2022/01/16 07:04:13;;;;;;;30.40;12.80;;;4.50;99.90;;;;;;5221296;22;20019;-90
2022/01/16 07:06:16;;;;;;;30.63;12.85;;;4.60;99.90;;;;;;5221009;22;20019;-89
2022/01/16 07:08:22;;;;;;;37.47;13.20;;;4.60;99.90;;;;;;5196721;22;20016;-92
2022/01/16 07:10:27;;;;;;;35.67;13.77;;;4.60;99.90;;;;;;5196426;22;20118;-93
2022/01/16 07:12:29;;;;;;;30.08;13.35;;;4.70;99.90;;;;;;5223005;22;20026;-91
2022/01/16 07:14:31;;;;;;;32.13;13.38;;;4.70;99.90;;;;;;5222441;22;20015;-92
2022/01/16 07:16:33;;;;;;;33.17;12.80;;;4.70;99.90;;;;;;5222502;22;20019;-89
2022/01/16 07:18:36;;;;;;;36.50;13.93;;;4.70;99.90;;;;;;5223884;22;20107;-91
2022/01/16 07:20:38;;;;;;;35.97;13.88;;;4.70;99.90;;;;;;5223405;22;20054;-91
2022/01/16 07:22:42;;;;;;;30.42;13.10;;;4.70;99.90;;;;;;5223217;22;20030;-91
2022/01/16 07:24:44;;;;;;;35.05;14.07;;;4.70;99.90;;;;;;5197150;22;20019;-90
2022/01/16 07:26:47;;;;;;;31.58;13.18;;;4.70;99.90;;;;;;5200230;22;20020;-92
2022/01/16 07:28:51;;;;;;;35.10;13.65;;;4.70;99.90;;;;;;5227009;22;20015;-91
2022/01/16 07:30:53;;;;;;;35.03;13.02;;;4.80;99.90;;;;;;5199764;22;20015;-90
2022/01/16 07:32:55;;;;;;;32.35;13.00;;;4.80;99.90;;;;;;5226473;22;20053;-93
2022/01/16 07:34:57;;;;;;;29.25;13.02;;;4.80;99.90;;;;;;5227447;22;20015;-91
2022/01/16 07:37:05;;;;;;;30.45;12.98;;;4.80;99.90;;;;;;5230346;22;20019;-90
2022/01/16 07:39:07;;;;;;;33.72;14.07;;;4.80;99.90;;;;;;5229866;22;20085;-90
2022/01/16 07:41:09;;;;;;;28.38;12.23;;;4.80;99.90;;;;;;5226291;22;20023;-91
2022/01/16 07:43:13;;;;;;;30.13;12.45;;;4.80;99.90;;;;;;5225876;22;20062;-91
2022/01/16 07:45:15;;;;;;;36.05;14.07;;;4.80;99.90;;;;;;5226399;22;20022;-88
2022/01/16 07:47:17;;;;;;;28.20;12.80;;;4.80;99.90;;;;;;5200483;22;20022;-89
2022/01/16 07:49:19;;;;;;;30.55;12.27;;;4.80;99.90;;;;;;5227990;22;20019;-90
2022/01/16 07:51:22;;;;;;;28.73;12.50;;;4.80;99.90;;;;;;5227085;22;20015;-91
2022/01/16 07:53:27;;;;;;;32.50;13.93;;;4.80;99.90;;;;;;5203932;22;20016;-91
2022/01/16 07:55:32;;;;;;;29.00;12.65;;;4.80;99.90;;;;;;5230149;22;20020;-92
2022/01/16 07:57:35;;;;;;;32.40;12.73;;;4.80;99.90;;;;;;5205245;22;20024;-89
2022/01/16 08:00:00;;;;;;;28.92;12.38;;;4.80;99.90;;;;;;5230970;22;20023;-90
2022/01/16 08:02:05;;;;;;;26.15;11.52;;;4.80;99.90;;;;;;5205045;22;20020;-91
2022/01/16 08:04:08;;;;;;;31.95;11.88;;;4.80;99.90;;;;;;5204535;22;20027;-91
2022/01/16 08:06:13;;;;;;;26.40;11.68;;;4.80;99.90;;;;;;5229987;22;20023;-92
2022/01/16 08:08:15;;;;;;;27.95;11.80;;;4.80;99.90;;;;;;5229839;22;19999;-90
2022/01/16 08:10:17;;;;;;;24.73;11.82;;;4.80;99.90;;;;;;5230759;22;20030;-92
2022/01/16 08:12:19;;;;;;;29.60;13.00;;;4.90;99.90;;;;;;5229783;22;20030;-91
2022/01/16 08:14:21;;;;;;;27.08;12.65;;;5.00;99.90;;;;;;5229652;22;20026;-92
2022/01/16 08:16:24;;;;;;;30.05;11.65;;;4.90;99.90;;;;;;5229401;22;19999;-90
2022/01/16 08:18:26;;;;;;;29.90;11.82;;;4.90;99.90;;;;;;5234075;22;20023;-88
2022/01/16 08:20:28;;;;;;;24.55;11.20;;;4.90;99.90;;;;;;5229102;22;20019;-91
2022/01/16 08:22:31;;;;;;;23.88;11.57;;;5.00;99.90;;;;;;5255292;22;20021;-90
2022/01/16 08:24:33;;;;;;;28.10;12.55;;;5.00;99.90;;;;;;5222313;22;20019;-78
2022/01/16 08:26:35;;;;;;;23.15;11.93;;;5.20;99.90;;;;;;5219118;22;20026;-81
2022/01/16 08:28:37;;;;;;;26.50;11.32;;;5.20;99.90;;;;;;5219016;22;20015;-84
2022/01/16 08:30:39;;;;;;;24.13;10.30;;;5.20;99.90;;;;;;5217513;22;20049;-80
2022/01/16 08:32:43;;;;;;;24.65;11.77;;;5.20;99.90;;;;;;5218471;22;20024;-80
2022/01/16 08:34:46;;;;;;;21.98;10.88;;;5.20;99.90;;;;;;5218817;22;20513;-80
2022/01/16 08:36:48;;;;;;;24.48;11.25;;;5.30;99.90;;;;;;5218940;22;20074;-82
2022/01/16 08:38:50;;;;;;;24.83;10.77;;;5.30;99.90;;;;;;5243982;22;20079;-81
2022/01/16 08:40:52;;;;;;;21.75;10.40;;;5.20;99.90;;;;;;5217698;22;20021;-80
2022/01/16 08:42:54;;;;;;;21.45;11.38;;;5.20;99.90;;;;;;5217893;22;20453;-80
2022/01/16 08:44:56;;;;;;;22.80;11.45;;;5.20;99.90;;;;;;5217265;22;20550;-81
2022/01/16 08:46:59;;;;;;;20.90;9.80;;;5.30;99.90;;;;;;5217506;22;20487;-79
2022/01/16 08:49:01;;;;;;;21.48;10.10;;;5.30;99.90;;;;;;5218554;22;20019;-78
2022/01/16 08:51:03;;;;;;;19.45;9.63;;;5.40;99.90;;;;;;5218656;22;20046;-79
2022/01/16 08:53:07;;;;;;;23.95;10.98;;;5.30;99.90;;;;;;5216372;22;20023;-78
2022/01/16 08:55:10;;;;;;;19.23;9.85;;;5.30;99.90;;;;;;5245291;22;20018;-80
2022/01/16 08:57:12;;;;;;;21.45;9.82;;;5.40;99.90;;;;;;5218488;22;20019;-85
2022/01/16 08:59:14;;;;;;;20.40;9.85;;;5.40;99.90;;;;;;5218095;22;20023;-80
2022/01/16 09:01:16;;;;;;;20.13;9.77;;;5.50;99.90;;;;;;5216393;22;20015;-78
2022/01/16 09:03:22;;;;;;;18.55;9.68;;;5.50;99.90;;;;;;5217216;22;20061;-81
2022/01/16 09:05:26;;;;;;;24.20;10.20;;;5.50;99.90;;;;;;5217060;22;20030;-79
2022/01/16 09:07:28;;;;;;;21.30;10.45;;;5.50;99.90;;;;;;5200104;22;20016;-77
2022/01/16 09:09:31;;;;;;;20.85;9.82;;;5.50;99.90;;;;;;5215904;22;20027;-79
2022/01/16 09:11:33;;;;;;;18.38;9.95;;;5.50;99.90;;;;;;5191588;22;20091;-80
2022/01/16 09:13:37;;;;;;;20.85;9.98;;;5.60;99.90;;;;;;5190784;22;20049;-80
2022/01/16 09:15:39;;;;;;;18.02;9.55;;;5.60;99.90;;;;;;5192031;22;20070;-82
2022/01/16 09:17:41;;;;;;;18.73;10.18;;;5.60;99.90;;;;;;5193663;22;20090;-82
2022/01/16 09:19:43;;;;;;;19.55;10.63;;;5.70;99.90;;;;;;5217626;22;20023;-80
2022/01/16 09:21:46;;;;;;;19.95;9.50;;;5.70;99.90;;;;;;5216505;22;20019;-81
2022/01/16 09:23:49;;;;;;;17.10;9.20;;;5.70;99.90;;;;;;5191448;22;20055;-78
2022/01/16 09:25:51;;;;;;;25.30;10.50;;;5.70;99.90;;;;;;5190078;22;20022;-81
2022/01/16 09:27:53;;;;;;;19.30;10.20;;;5.70;99.90;;;;;;5217989;22;20615;-80
2022/01/16 09:29:55;;;;;;;16.70;9.38;;;5.80;99.90;;;;;;5191600;22;20036;-79
2022/01/16 09:31:57;;;;;;;15.38;9.05;;;5.90;99.90;;;;;;5191185;22;20022;-79
2022/01/16 09:34:00;;;;;;;15.88;9.40;;;6.00;99.90;;;;;;5190185;22;20419;-81
2022/01/16 09:36:04;;;;;;;16.17;9.32;;;6.00;99.90;;;;;;5190894;22;20067;-78
2022/01/16 09:38:06;;;;;;;22.85;10.15;;;6.00;99.90;;;;;;5192053;22;20393;-81
2022/01/16 09:40:10;;;;;;;15.77;9.43;;;6.00;99.90;;;;;;5216178;22;20030;-78
2022/01/16 09:42:12;;;;;;;18.03;9.53;;;6.10;99.90;;;;;;5191684;22;20106;-79
2022/01/16 09:44:16;;;;;;;15.93;8.80;;;6.10;99.90;;;;;;5190359;22;20243;-79
2022/01/16 09:46:18;;;;;;;16.48;8.68;;;6.20;99.90;;;;;;5191489;22;20047;-80
2022/01/16 09:48:20;;;;;;;18.25;9.32;;;6.20;99.90;;;;;;5191332;22;20012;-78
2022/01/16 09:50:25;;;;;;;16.08;9.00;;;6.20;99.90;;;;;;5190985;22;20019;-78
2022/01/16 09:52:27;;;;;;;15.35;8.63;;;6.20;99.90;;;;;;5191258;22;20098;-79
2022/01/16 09:54:29;;;;;;;14.50;8.40;;;6.20;99.90;;;;;;5190680;22;20062;-82
2022/01/16 09:56:31;;;;;;;15.13;8.75;;;6.20;99.90;;;;;;5192825;22;20485;-80
2022/01/16 09:58:34;;;;;;;15.48;8.77;;;6.20;99.90;;;;;;5190847;22;20020;-80
2022/01/16 10:00:36;;;;;;;17.65;9.23;;;6.30;99.90;;;;;;5191198;22;20067;-80
2022/01/16 10:02:38;;;;;;;15.90;8.90;;;6.30;99.90;;;;;;5188380;22;20035;-78
2022/01/16 10:04:42;;;;;;;15.02;8.15;;;6.40;99.90;;;;;;5190044;22;20016;-79
2022/01/16 10:06:55;;;;;;;16.02;8.52;;;6.40;99.90;;;;;;5195025;22;20089;-81
2022/01/16 10:08:57;;;;;;;13.25;8.25;;;6.50;99.90;;;;;;5217107;22;20034;-76
2022/01/16 10:11:18;;;;;;;13.15;7.80;;;6.60;99.90;;;;;;5243415;22;20042;-76
2022/01/16 10:13:21;;;;;;;16.95;8.57;;;6.60;99.90;;;;;;5244243;22;20018;-79
2022/01/16 10:15:28;;;;;;;14.07;7.82;;;6.60;99.90;;;;;;5215461;22;20019;-78
2022/01/16 10:17:30;;;;;;;15.13;8.57;;;6.50;99.90;;;;;;5216247;22;20417;-77
2022/01/16 10:19:31;;;;;;;13.38;7.68;;;6.60;99.90;;;;;;5216545;22;20055;-79
2022/01/16 10:21:40;;;;;;;12.27;7.95;;;6.70;99.90;;;;;;5215157;22;20015;-77
2022/01/16 10:23:44;;;;;;;12.25;7.95;;;6.70;99.90;;;;;;5216697;22;20422;-82
2022/01/16 10:25:48;;;;;;;15.68;8.27;;;6.70;99.90;;;;;;5215344;22;20019;-80
2022/01/16 10:27:49;;;;;;;13.75;7.28;;;6.60;99.90;;;;;;5215973;22;20023;-78
2022/01/16 10:29:53;;;;;;;15.07;8.80;;;6.60;99.90;;;;;;5215661;22;20026;-79
2022/01/16 10:32:17;;;;;;;15.30;8.05;;;6.70;99.90;;;;;;5216369;22;20102;-79
2022/01/16 10:34:31;;;;;;;12.30;7.72;;;6.80;99.90;;;;;;5216426;22;20019;-78
2022/01/16 10:36:36;;;;;;;11.10;7.05;;;6.90;99.90;;;;;;5216014;22;20023;-78
2022/01/16 10:38:37;;;;;;;15.45;7.72;;;7.00;99.90;;;;;;5215013;22;20023;-78
2022/01/16 10:40:40;;;;;;;11.43;7.03;;;6.90;99.90;;;;;;5215221;22;20055;-80
2022/01/16 10:42:51;;;;;;;13.35;6.63;;;6.80;99.90;;;;;;5244529;22;20030;-81
2022/01/16 10:45:11;;;;;;;10.68;7.40;;;6.90;99.90;;;;;;5215554;22;20056;-80
2022/01/16 10:47:32;;;;;;;11.95;7.50;;;6.90;99.90;;;;;;5215066;22;20489;-80
2022/01/16 10:49:34;;;;;;;12.93;7.20;;;6.90;99.90;;;;;;5216333;22;20015;-81
2022/01/16 10:51:37;;;;;;;10.18;6.90;;;7.00;99.90;;;;;;5216253;22;20085;-80
2022/01/16 10:53:40;;;;;;;13.32;7.03;;;7.10;99.90;;;;;;5216406;22;20019;-77
2022/01/16 10:55:48;;;;;;;10.13;6.35;;;7.20;99.90;;;;;;5215819;22;20054;-78
2022/01/16 10:57:59;;;;;;;18.35;6.93;;;7.20;99.90;;;;;;5216696;22;20085;-79
2022/01/16 11:00:23;;;;;;;9.75;6.53;;;7.30;99.90;;;;;;5215668;22;20026;-78
2022/01/16 11:02:24;;;;;;;10.75;6.97;;;7.20;99.90;;;;;;5216054;22;20026;-78
2022/01/16 11:04:26;;;;;;;9.68;6.18;;;7.20;99.90;;;;;;5243588;22;20015;-77
2022/01/16 11:06:28;;;;;;;10.88;6.88;;;7.20;99.90;;;;;;5212491;22;20020;-78
2022/01/16 11:08:30;;;;;;;13.43;6.90;;;7.30;99.90;;;;;;5188728;22;20737;-78
2022/01/16 11:10:35;;;;;;;11.32;6.75;;;7.30;99.90;;;;;;5190265;22;20028;-77
2022/01/16 11:12:37;;;;;;;;;;;7.40;99.90;;;;;;5190894;22;20016;-79
2022/01/16 11:14:39;;;;;;;9.43;6.03;;;7.40;99.90;;;;;;5190711;22;20455;-79
2022/01/16 11:16:41;;;;;;;11.43;6.75;;;7.40;99.90;;;;;;5189524;22;20016;-78
2022/01/16 11:18:49;;;;;;;9.43;6.15;;;7.40;99.90;;;;;;5217269;22;20023;-78